sensor_id;sensor_type;location;lat;lon;timestamp;P1;durP1;ratioP1;P2;durP2;ratioP2
6902;SDS011;20232;49.408;8.702;2023-03-14T05:02:42;3.60;;;1.57;;
6902;SDS011;20232;49.408;8.702;2023-03-14T05:05:08;2.43;;;1.70;;
6902;SDS011;20232;49.408;8.702;2023-03-14T05:07:33;3.50;;;1.90;;
6902;SDS011;20232;49.408;8.702;2023-03-14T05:09:59;3.47;;;1.67;;
6902;SDS011;20232;49.408;8.702;2023-03-14T05:12:24;3.87;;;1.50;;
6902;SDS011;20232;49.408;8.702;2023-03-14T05:14:50;4.77;;;1.83;;
6902;SDS011;20232;49.408;8.702;2023-03-14T05:17:15;5.27;;;1.63;;
6902;SDS011;20232;49.408;8.702;2023-03-14T05:19:41;4.47;;;1.80;;
6902;SDS011;20232;49.408;8.702;2023-03-14T05:22:07;3.33;;;1.90;;
6902;SDS011;20232;49.408;8.702;2023-03-14T05:24:32;3.70;;;1.70;;
6902;SDS011;20232;49.408;8.702;2023-03-14T05:26:58;4.70;;;1.90;;
6902;SDS011;20232;49.408;8.702;2023-03-14T05:29:24;2.73;;;1.60;;
6902;SDS011;20232;49.408;8.702;2023-03-14T05:31:50;2.63;;;1.70;;
6902;SDS011;20232;49.408;8.702;2023-03-14T05:34:15;2.67;;;1.60;;
6902;SDS011;20232;49.408;8.702;2023-03-14T05:36:41;3.97;;;1.60;;
6902;SDS011;20232;49.408;8.702;2023-03-14T05:39:06;3.07;;;1.50;;
6902;SDS011;20232;49.408;8.702;2023-03-14T05:41:32;4.23;;;2.00;;
6902;SDS011;20232;49.408;8.702;2023-03-14T05:43:57;1.70;;;1.30;;
6902;SDS011;20232;49.408;8.702;2023-03-14T05:46:23;4.00;;;2.10;;
6902;SDS011;20232;49.408;8.702;2023-03-14T05:48:49;3.13;;;1.80;;
6902;SDS011;20232;49.408;8.702;2023-03-14T05:51:14;2.60;;;1.70;;
6902;SDS011;20232;49.408;8.702;2023-03-14T05:53:40;2.87;;;1.70;;
6902;SDS011;20232;49.408;8.702;2023-03-14T05:56:05;5.57;;;2.07;;
6902;SDS011;20232;49.408;8.702;2023-03-14T05:58:32;3.63;;;1.60;;
6902;SDS011;20232;49.408;8.702;2023-03-14T06:00:57;4.60;;;1.50;;
6902;SDS011;20232;49.408;8.702;2023-03-14T06:03:26;4.53;;;1.50;;
6902;SDS011;20232;49.408;8.702;2023-03-14T06:05:51;3.97;;;1.60;;
6902;SDS011;20232;49.408;8.702;2023-03-14T06:08:17;2.93;;;1.73;;
6902;SDS011;20232;49.408;8.702;2023-03-14T06:10:42;5.43;;;1.87;;
6902;SDS011;20232;49.408;8.702;2023-03-14T06:13:08;3.57;;;1.60;;
6902;SDS011;20232;49.408;8.702;2023-03-14T06:15:33;3.20;;;1.70;;
6902;SDS011;20232;49.408;8.702;2023-03-14T06:18:00;5.77;;;1.80;;
6902;SDS011;20232;49.408;8.702;2023-03-14T06:20:26;3.30;;;1.70;;
6902;SDS011;20232;49.408;8.702;2023-03-14T06:22:52;6.07;;;2.00;;
6902;SDS011;20232;49.408;8.702;2023-03-14T06:25:17;2.50;;;1.70;;
6902;SDS011;20232;49.408;8.702;2023-03-14T06:27:43;4.07;;;1.80;;
6902;SDS011;20232;49.408;8.702;2023-03-14T06:30:09;3.47;;;1.60;;
6902;SDS011;20232;49.408;8.702;2023-03-14T06:32:35;3.93;;;1.57;;
6902;SDS011;20232;49.408;8.702;2023-03-14T06:35:00;3.63;;;1.87;;
6902;SDS011;20232;49.408;8.702;2023-03-14T06:37:27;3.50;;;1.90;;
6902;SDS011;20232;49.408;8.702;2023-03-14T06:39:53;4.23;;;1.60;;
6902;SDS011;20232;49.408;8.702;2023-03-14T06:42:19;4.90;;;2.00;;
6902;SDS011;20232;49.408;8.702;2023-03-14T06:44:45;3.10;;;1.73;;
6902;SDS011;20232;49.408;8.702;2023-03-14T06:47:10;4.00;;;1.80;;
6902;SDS011;20232;49.408;8.702;2023-03-14T06:49:36;3.63;;;1.73;;
6902;SDS011;20232;49.408;8.702;2023-03-14T06:52:01;3.80;;;1.87;;
6902;SDS011;20232;49.408;8.702;2023-03-14T06:54:27;3.47;;;1.93;;
6902;SDS011;20232;49.408;8.702;2023-03-14T06:56:52;3.67;;;1.80;;
6902;SDS011;20232;49.408;8.702;2023-03-14T06:59:18;4.73;;;1.70;;
6902;SDS011;20232;49.408;8.702;2023-03-14T07:01:43;2.77;;;1.50;;
6902;SDS011;20232;49.408;8.702;2023-03-14T07:04:09;2.53;;;1.80;;
6902;SDS011;20232;49.408;8.702;2023-03-14T07:06:38;2.57;;;1.67;;
6902;SDS011;20232;49.408;8.702;2023-03-14T07:09:04;2.53;;;1.60;;
6902;SDS011;20232;49.408;8.702;2023-03-14T07:11:30;3.20;;;1.50;;
6902;SDS011;20232;49.408;8.702;2023-03-14T07:13:56;5.47;;;1.73;;
6902;SDS011;20232;49.408;8.702;2023-03-14T07:16:21;3.63;;;1.60;;
6902;SDS011;20232;49.408;8.702;2023-03-14T07:18:47;4.03;;;1.70;;
6902;SDS011;20232;49.408;8.702;2023-03-14T07:21:14;3.87;;;1.63;;
6902;SDS011;20232;49.408;8.702;2023-03-14T07:23:39;4.20;;;1.73;;
6902;SDS011;20232;49.408;8.702;2023-03-14T07:26:05;4.53;;;1.77;;
6902;SDS011;20232;49.408;8.702;2023-03-14T07:28:31;2.97;;;1.67;;
6902;SDS011;20232;49.408;8.702;2023-03-14T07:30:56;3.17;;;1.67;;
6902;SDS011;20232;49.408;8.702;2023-03-14T07:33:22;1.97;;;1.57;;
6902;SDS011;20232;49.408;8.702;2023-03-14T07:35:48;2.33;;;1.70;;
6902;SDS011;20232;49.408;8.702;2023-03-14T07:38:14;2.77;;;1.47;;
6902;SDS011;20232;49.408;8.702;2023-03-14T07:40:41;4.03;;;1.80;;
6902;SDS011;20232;49.408;8.702;2023-03-14T07:43:06;4.43;;;1.60;;
6902;SDS011;20232;49.408;8.702;2023-03-14T07:45:32;3.37;;;1.80;;
6902;SDS011;20232;49.408;8.702;2023-03-14T07:47:57;4.10;;;1.70;;
6902;SDS011;20232;49.408;8.702;2023-03-14T07:50:23;2.70;;;1.70;;
6902;SDS011;20232;49.408;8.702;2023-03-14T07:52:53;4.13;;;1.40;;
6902;SDS011;20232;49.408;8.702;2023-03-14T07:55:20;2.83;;;1.60;;
6902;SDS011;20232;49.408;8.702;2023-03-14T07:57:46;2.80;;;1.80;;
6902;SDS011;20232;49.408;8.702;2023-03-14T08:00:12;2.13;;;1.63;;
6902;SDS011;20232;49.408;8.702;2023-03-14T08:02:39;3.80;;;1.70;;
6902;SDS011;20232;49.408;8.702;2023-03-14T08:05:05;4.03;;;1.70;;
6902;SDS011;20232;49.408;8.702;2023-03-14T08:07:31;2.87;;;1.70;;
6902;SDS011;20232;49.408;8.702;2023-03-14T08:09:56;3.07;;;1.40;;
6902;SDS011;20232;49.408;8.702;2023-03-14T08:12:22;3.13;;;1.60;;
6902;SDS011;20232;49.408;8.702;2023-03-14T08:14:47;1.87;;;1.50;;
6902;SDS011;20232;49.408;8.702;2023-03-14T08:17:13;3.40;;;1.70;;
6902;SDS011;20232;49.408;8.702;2023-03-14T08:19:40;3.07;;;1.50;;
6902;SDS011;20232;49.408;8.702;2023-03-14T08:22:06;4.03;;;1.60;;
6902;SDS011;20232;49.408;8.702;2023-03-14T08:24:31;3.63;;;1.80;;
6902;SDS011;20232;49.408;8.702;2023-03-14T08:26:57;2.27;;;1.30;;
6902;SDS011;20232;49.408;8.702;2023-03-14T08:29:23;2.57;;;1.37;;
6902;SDS011;20232;49.408;8.702;2023-03-14T08:31:48;3.13;;;1.70;;
6902;SDS011;20232;49.408;8.702;2023-03-14T08:34:14;2.97;;;1.50;;
6902;SDS011;20232;49.408;8.702;2023-03-14T08:36:40;2.57;;;1.30;;
6902;SDS011;20232;49.408;8.702;2023-03-14T08:39:06;2.20;;;1.40;;
6902;SDS011;20232;49.408;8.702;2023-03-14T08:41:32;2.47;;;1.20;;
6902;SDS011;20232;49.408;8.702;2023-03-14T08:43:58;2.33;;;1.30;;
6902;SDS011;20232;49.408;8.702;2023-03-14T08:46:23;3.00;;;1.30;;
6902;SDS011;20232;49.408;8.702;2023-03-14T08:48:49;1.17;;;1.10;;
6902;SDS011;20232;49.408;8.702;2023-03-14T08:51:14;3.43;;;1.30;;
6902;SDS011;20232;49.408;8.702;2023-03-14T08:53:40;1.97;;;1.30;;
6902;SDS011;20232;49.408;8.702;2023-03-14T08:56:06;1.70;;;1.27;;
6902;SDS011;20232;49.408;8.702;2023-03-14T08:58:34;2.27;;;1.20;;
6902;SDS011;20232;49.408;8.702;2023-03-14T09:01:02;1.73;;;1.30;;
6902;SDS011;20232;49.408;8.702;2023-03-14T09:03:27;1.70;;;1.20;;
6902;SDS011;20232;49.408;8.702;2023-03-14T09:05:53;1.30;;;1.20;;
6902;SDS011;20232;49.408;8.702;2023-03-14T09:08:19;1.67;;;1.20;;
6902;SDS011;20232;49.408;8.702;2023-03-14T09:10:44;1.30;;;1.20;;
6902;SDS011;20232;49.408;8.702;2023-03-14T09:13:10;1.20;;;1.10;;
6902;SDS011;20232;49.408;8.702;2023-03-14T09:15:35;3.63;;;1.23;;
6902;SDS011;20232;49.408;8.702;2023-03-14T09:18:01;3.33;;;1.20;;
6902;SDS011;20232;49.408;8.702;2023-03-14T09:20:27;2.40;;;1.40;;
6902;SDS011;20232;49.408;8.702;2023-03-14T09:22:52;1.30;;;1.20;;
6902;SDS011;20232;49.408;8.702;2023-03-14T09:25:18;1.80;;;1.23;;
6902;SDS011;20232;49.408;8.702;2023-03-14T09:27:44;2.47;;;1.20;;
6902;SDS011;20232;49.408;8.702;2023-03-14T09:30:09;1.20;;;1.10;;
6902;SDS011;20232;49.408;8.702;2023-03-14T09:32:35;2.87;;;1.20;;
6902;SDS011;20232;49.408;8.702;2023-03-14T09:35:01;1.27;;;1.17;;
6902;SDS011;20232;49.408;8.702;2023-03-14T09:37:27;2.83;;;1.37;;
6902;SDS011;20232;49.408;8.702;2023-03-14T09:39:52;3.53;;;1.20;;
6902;SDS011;20232;49.408;8.702;2023-03-14T09:42:18;2.90;;;1.27;;
6902;SDS011;20232;49.408;8.702;2023-03-14T09:44:51;1.63;;;1.20;;
6902;SDS011;20232;49.408;8.702;2023-03-14T09:47:22;2.40;;;1.40;;
6902;SDS011;20232;49.408;8.702;2023-03-14T09:49:49;2.33;;;1.30;;
6902;SDS011;20232;49.408;8.702;2023-03-14T09:52:17;1.40;;;1.30;;
6902;SDS011;20232;49.408;8.702;2023-03-14T09:54:47;1.63;;;1.13;;
6902;SDS011;20232;49.408;8.702;2023-03-14T09:57:18;2.83;;;1.30;;
6902;SDS011;20232;49.408;8.702;2023-03-14T09:59:47;2.73;;;1.17;;
6902;SDS011;20232;49.408;8.702;2023-03-14T10:02:22;2.00;;;1.30;;
6902;SDS011;20232;49.408;8.702;2023-03-14T10:04:56;1.50;;;1.10;;
6902;SDS011;20232;49.408;8.702;2023-03-14T10:07:27;2.80;;;1.10;;
6902;SDS011;20232;49.408;8.702;2023-03-14T10:09:55;1.30;;;1.20;;
6902;SDS011;20232;49.408;8.702;2023-03-14T10:12:30;1.20;;;1.10;;
6902;SDS011;20232;49.408;8.702;2023-03-14T10:15:07;1.10;;;1.10;;
6902;SDS011;20232;49.408;8.702;2023-03-14T10:17:42;2.43;;;1.00;;
6902;SDS011;20232;49.408;8.702;2023-03-14T10:20:29;1.00;;;1.00;;
6902;SDS011;20232;49.408;8.702;2023-03-14T10:23:00;1.87;;;1.00;;
6902;SDS011;20232;49.408;8.702;2023-03-14T10:25:29;0.90;;;0.90;;
6902;SDS011;20232;49.408;8.702;2023-03-14T10:27:57;2.30;;;1.23;;
6902;SDS011;20232;49.408;8.702;2023-03-14T10:30:29;1.57;;;1.17;;
6902;SDS011;20232;49.408;8.702;2023-03-14T10:33:15;1.27;;;1.17;;
6902;SDS011;20232;49.408;8.702;2023-03-14T10:35:46;2.40;;;1.07;;
6902;SDS011;20232;49.408;8.702;2023-03-14T10:38:18;2.50;;;1.10;;
6902;SDS011;20232;49.408;8.702;2023-03-14T10:40:50;1.70;;;1.10;;
6902;SDS011;20232;49.408;8.702;2023-03-14T10:43:25;1.53;;;1.10;;
6902;SDS011;20232;49.408;8.702;2023-03-14T10:45:54;2.53;;;1.30;;
6902;SDS011;20232;49.408;8.702;2023-03-14T10:48:24;1.20;;;1.10;;
6902;SDS011;20232;49.408;8.702;2023-03-14T10:53:32;2.13;;;1.10;;
6902;SDS011;20232;49.408;8.702;2023-03-14T10:56:03;1.00;;;1.00;;
6902;SDS011;20232;49.408;8.702;2023-03-14T10:58:30;1.27;;;1.10;;
6902;SDS011;20232;49.408;8.702;2023-03-14T11:01:11;1.37;;;1.20;;
6902;SDS011;20232;49.408;8.702;2023-03-14T11:03:49;1.47;;;1.37;;
6902;SDS011;20232;49.408;8.702;2023-03-14T11:06:23;1.20;;;1.20;;
6902;SDS011;20232;49.408;8.702;2023-03-14T11:09:10;1.07;;;1.07;;
6902;SDS011;20232;49.408;8.702;2023-03-14T11:11:52;1.57;;;1.20;;
6902;SDS011;20232;49.408;8.702;2023-03-14T11:14:36;2.57;;;1.10;;
6902;SDS011;20232;49.408;8.702;2023-03-14T11:22:41;1.60;;;1.20;;
6902;SDS011;20232;49.408;8.702;2023-03-14T11:30:54;1.53;;;1.40;;
6902;SDS011;20232;49.408;8.702;2023-03-14T11:33:36;1.30;;;1.20;;
6902;SDS011;20232;49.408;8.702;2023-03-14T11:36:08;1.10;;;1.10;;
6902;SDS011;20232;49.408;8.702;2023-03-14T11:38:45;1.20;;;1.10;;
6902;SDS011;20232;49.408;8.702;2023-03-14T11:41:17;1.87;;;1.27;;
6902;SDS011;20232;49.408;8.702;2023-03-14T11:43:55;1.40;;;1.30;;
6902;SDS011;20232;49.408;8.702;2023-03-14T11:46:27;1.30;;;1.20;;
6902;SDS011;20232;49.408;8.702;2023-03-14T11:51:52;2.53;;;1.20;;
6902;SDS011;20232;49.408;8.702;2023-03-14T11:57:16;1.20;;;1.20;;
6902;SDS011;20232;49.408;8.702;2023-03-14T11:59:51;1.93;;;1.23;;
6902;SDS011;20232;49.408;8.702;2023-03-14T12:02:31;1.80;;;1.70;;
6902;SDS011;20232;49.408;8.702;2023-03-14T12:10:39;2.20;;;1.10;;
6902;SDS011;20232;49.408;8.702;2023-03-14T12:13:12;1.40;;;1.30;;
6902;SDS011;20232;49.408;8.702;2023-03-14T12:15:41;1.30;;;1.30;;
6902;SDS011;20232;49.408;8.702;2023-03-14T12:18:31;1.63;;;1.20;;
6902;SDS011;20232;49.408;8.702;2023-03-14T12:21:00;1.10;;;1.10;;
6902;SDS011;20232;49.408;8.702;2023-03-14T12:23:28;1.30;;;1.20;;
6902;SDS011;20232;49.408;8.702;2023-03-14T12:29:23;1.20;;;1.20;;
6902;SDS011;20232;49.408;8.702;2023-03-14T12:42:11;1.37;;;1.27;;
6902;SDS011;20232;49.408;8.702;2023-03-14T12:44:47;1.40;;;1.30;;
6902;SDS011;20232;49.408;8.702;2023-03-14T12:52:16;1.30;;;1.20;;
6902;SDS011;20232;49.408;8.702;2023-03-14T12:54:50;1.23;;;1.10;;
6902;SDS011;20232;49.408;8.702;2023-03-14T12:57:34;1.90;;;1.30;;
6902;SDS011;20232;49.408;8.702;2023-03-14T13:02:49;1.43;;;1.40;;
6902;SDS011;20232;49.408;8.702;2023-03-14T13:05:19;1.30;;;1.30;;
6902;SDS011;20232;49.408;8.702;2023-03-14T13:10:24;1.40;;;1.40;;
6902;SDS011;20232;49.408;8.702;2023-03-14T13:12:57;2.77;;;1.87;;
6902;SDS011;20232;49.408;8.702;2023-03-14T13:15:39;1.80;;;1.70;;
6902;SDS011;20232;49.408;8.702;2023-03-14T13:24:00;1.77;;;1.60;;
6902;SDS011;20232;49.408;8.702;2023-03-14T13:26:35;3.63;;;2.10;;
6902;SDS011;20232;49.408;8.702;2023-03-14T13:29:19;2.87;;;1.87;;
6902;SDS011;20232;49.408;8.702;2023-03-14T13:31:45;2.63;;;1.47;;
6902;SDS011;20232;49.408;8.702;2023-03-14T13:34:12;1.83;;;1.60;;
6902;SDS011;20232;49.408;8.702;2023-03-14T13:36:38;1.90;;;1.80;;
6902;SDS011;20232;49.408;8.702;2023-03-14T13:39:06;2.27;;;1.80;;
6902;SDS011;20232;49.408;8.702;2023-03-14T13:41:39;2.10;;;1.70;;
6902;SDS011;20232;49.408;8.702;2023-03-14T13:44:06;2.03;;;1.87;;
6902;SDS011;20232;49.408;8.702;2023-03-14T13:46:39;3.20;;;1.70;;
6902;SDS011;20232;49.408;8.702;2023-03-14T13:49:05;3.10;;;1.90;;
6902;SDS011;20232;49.408;8.702;2023-03-14T13:51:44;2.10;;;1.90;;
6902;SDS011;20232;49.408;8.702;2023-03-14T13:54:13;3.90;;;1.70;;
6902;SDS011;20232;49.408;8.702;2023-03-14T13:56:40;4.00;;;1.70;;
6902;SDS011;20232;49.408;8.702;2023-03-14T13:59:25;3.27;;;1.70;;
6902;SDS011;20232;49.408;8.702;2023-03-14T14:01:52;2.90;;;1.73;;
6902;SDS011;20232;49.408;8.702;2023-03-14T14:04:20;9.37;;;2.07;;
6902;SDS011;20232;49.408;8.702;2023-03-14T14:06:57;2.67;;;1.80;;
6902;SDS011;20232;49.408;8.702;2023-03-14T14:09:26;1.60;;;1.50;;
6902;SDS011;20232;49.408;8.702;2023-03-14T14:12:00;2.27;;;1.50;;
6902;SDS011;20232;49.408;8.702;2023-03-14T14:14:40;3.60;;;1.63;;
6902;SDS011;20232;49.408;8.702;2023-03-14T14:17:15;3.97;;;1.33;;
6902;SDS011;20232;49.408;8.702;2023-03-14T14:19:45;3.60;;;1.30;;
6902;SDS011;20232;49.408;8.702;2023-03-14T14:22:11;3.70;;;1.50;;
6902;SDS011;20232;49.408;8.702;2023-03-14T14:24:37;2.57;;;1.40;;
6902;SDS011;20232;49.408;8.702;2023-03-14T14:27:17;1.97;;;1.30;;
6902;SDS011;20232;49.408;8.702;2023-03-14T14:30:00;2.83;;;1.50;;
6902;SDS011;20232;49.408;8.702;2023-03-14T14:32:34;2.23;;;1.30;;
6902;SDS011;20232;49.408;8.702;2023-03-14T14:35:01;3.83;;;1.50;;
6902;SDS011;20232;49.408;8.702;2023-03-14T14:37:28;2.53;;;1.43;;
6902;SDS011;20232;49.408;8.702;2023-03-14T14:40:00;2.30;;;1.50;;
6902;SDS011;20232;49.408;8.702;2023-03-14T14:42:32;1.77;;;1.40;;
6902;SDS011;20232;49.408;8.702;2023-03-14T14:44:58;2.67;;;1.40;;
6902;SDS011;20232;49.408;8.702;2023-03-14T14:47:25;1.53;;;1.37;;
6902;SDS011;20232;49.408;8.702;2023-03-14T14:49:53;2.00;;;1.20;;
6902;SDS011;20232;49.408;8.702;2023-03-14T14:52:20;2.17;;;1.30;;
6902;SDS011;20232;49.408;8.702;2023-03-14T14:54:57;2.17;;;1.30;;
6902;SDS011;20232;49.408;8.702;2023-03-14T14:59:55;2.20;;;1.30;;
6902;SDS011;20232;49.408;8.702;2023-03-14T15:05:16;2.47;;;1.50;;
6902;SDS011;20232;49.408;8.702;2023-03-14T15:07:46;2.77;;;1.30;;
6902;SDS011;20232;49.408;8.702;2023-03-14T15:10:16;1.73;;;1.60;;
6902;SDS011;20232;49.408;8.702;2023-03-14T15:12:47;2.80;;;1.50;;
6902;SDS011;20232;49.408;8.702;2023-03-14T15:15:13;3.07;;;1.40;;
6902;SDS011;20232;49.408;8.702;2023-03-14T15:17:39;2.80;;;1.50;;
6902;SDS011;20232;49.408;8.702;2023-03-14T15:20:06;1.70;;;1.50;;
6902;SDS011;20232;49.408;8.702;2023-03-14T15:22:35;5.10;;;1.53;;
6902;SDS011;20232;49.408;8.702;2023-03-14T15:25:01;3.00;;;1.50;;
6902;SDS011;20232;49.408;8.702;2023-03-14T15:27:26;1.80;;;1.30;;
6902;SDS011;20232;49.408;8.702;2023-03-14T15:29:55;2.10;;;1.40;;
6902;SDS011;20232;49.408;8.702;2023-03-14T15:32:20;2.43;;;1.40;;
6902;SDS011;20232;49.408;8.702;2023-03-14T15:34:46;2.40;;;1.70;;
6902;SDS011;20232;49.408;8.702;2023-03-14T15:37:12;2.33;;;1.70;;
6902;SDS011;20232;49.408;8.702;2023-03-14T15:39:41;2.23;;;1.20;;
6902;SDS011;20232;49.408;8.702;2023-03-14T15:42:08;2.03;;;1.30;;
6902;SDS011;20232;49.408;8.702;2023-03-14T15:44:33;1.43;;;1.30;;
6902;SDS011;20232;49.408;8.702;2023-03-14T15:46:59;2.97;;;1.30;;
6902;SDS011;20232;49.408;8.702;2023-03-14T15:49:25;2.03;;;1.33;;
6902;SDS011;20232;49.408;8.702;2023-03-14T15:51:51;2.60;;;1.27;;
6902;SDS011;20232;49.408;8.702;2023-03-14T15:54:16;2.23;;;1.20;;
6902;SDS011;20232;49.408;8.702;2023-03-14T15:56:42;1.53;;;1.40;;
6902;SDS011;20232;49.408;8.702;2023-03-14T15:59:08;1.20;;;1.10;;
6902;SDS011;20232;49.408;8.702;2023-03-14T16:01:33;1.77;;;1.50;;
6902;SDS011;20232;49.408;8.702;2023-03-14T16:03:59;2.07;;;1.30;;
6902;SDS011;20232;49.408;8.702;2023-03-14T16:06:24;1.50;;;1.40;;
6902;SDS011;20232;49.408;8.702;2023-03-14T16:08:50;2.97;;;1.20;;
6902;SDS011;20232;49.408;8.702;2023-03-14T16:11:16;2.90;;;1.40;;
6902;SDS011;20232;49.408;8.702;2023-03-14T16:13:45;3.17;;;1.50;;
6902;SDS011;20232;49.408;8.702;2023-03-14T16:16:11;3.03;;;1.40;;
6902;SDS011;20232;49.408;8.702;2023-03-14T16:18:37;4.37;;;1.70;;
6902;SDS011;20232;49.408;8.702;2023-03-14T16:21:05;2.87;;;1.60;;
6902;SDS011;20232;49.408;8.702;2023-03-14T16:23:41;2.10;;;1.60;;
6902;SDS011;20232;49.408;8.702;2023-03-14T16:26:08;3.20;;;1.70;;
6902;SDS011;20232;49.408;8.702;2023-03-14T16:28:36;2.10;;;1.33;;
6902;SDS011;20232;49.408;8.702;2023-03-14T16:31:02;2.43;;;1.47;;
6902;SDS011;20232;49.408;8.702;2023-03-14T16:33:30;4.30;;;1.93;;
6902;SDS011;20232;49.408;8.702;2023-03-14T16:35:56;3.07;;;1.53;;
6902;SDS011;20232;49.408;8.702;2023-03-14T16:38:25;3.27;;;1.67;;
6902;SDS011;20232;49.408;8.702;2023-03-14T16:40:55;3.97;;;1.70;;
6902;SDS011;20232;49.408;8.702;2023-03-14T16:43:22;4.23;;;1.53;;
6902;SDS011;20232;49.408;8.702;2023-03-14T16:45:48;2.37;;;1.67;;
6902;SDS011;20232;49.408;8.702;2023-03-14T16:48:14;3.67;;;1.80;;
6902;SDS011;20232;49.408;8.702;2023-03-14T16:50:39;7.87;;;2.17;;
6902;SDS011;20232;49.408;8.702;2023-03-14T16:53:05;4.20;;;1.90;;
6902;SDS011;20232;49.408;8.702;2023-03-14T16:55:31;3.87;;;1.60;;
6902;SDS011;20232;49.408;8.702;2023-03-14T16:57:57;3.47;;;1.67;;
6902;SDS011;20232;49.408;8.702;2023-03-14T17:00:22;3.90;;;1.73;;
6902;SDS011;20232;49.408;8.702;2023-03-14T17:02:48;5.57;;;2.00;;
6902;SDS011;20232;49.408;8.702;2023-03-14T17:05:13;3.23;;;2.10;;
6902;SDS011;20232;49.408;8.702;2023-03-14T17:07:39;4.53;;;2.17;;
6902;SDS011;20232;49.408;8.702;2023-03-14T17:10:05;3.00;;;1.80;;
6902;SDS011;20232;49.408;8.702;2023-03-14T17:12:30;5.40;;;1.90;;
6902;SDS011;20232;49.408;8.702;2023-03-14T17:14:58;4.23;;;1.90;;
6902;SDS011;20232;49.408;8.702;2023-03-14T17:17:24;6.20;;;1.97;;
6902;SDS011;20232;49.408;8.702;2023-03-14T17:19:50;4.73;;;1.90;;
6902;SDS011;20232;49.408;8.702;2023-03-14T17:22:16;4.00;;;2.00;;
6902;SDS011;20232;49.408;8.702;2023-03-14T17:24:41;9.47;;;1.80;;
6902;SDS011;20232;49.408;8.702;2023-03-14T17:27:07;4.27;;;1.87;;
6902;SDS011;20232;49.408;8.702;2023-03-14T17:29:32;5.57;;;1.93;;
6902;SDS011;20232;49.408;8.702;2023-03-14T17:31:58;5.20;;;2.00;;
6902;SDS011;20232;49.408;8.702;2023-03-14T17:34:24;4.33;;;1.93;;
6902;SDS011;20232;49.408;8.702;2023-03-14T17:36:49;6.00;;;1.90;;
6902;SDS011;20232;49.408;8.702;2023-03-14T17:39:15;5.40;;;2.13;;
6902;SDS011;20232;49.408;8.702;2023-03-14T17:41:40;5.17;;;2.00;;
6902;SDS011;20232;49.408;8.702;2023-03-14T17:44:06;6.13;;;2.10;;
6902;SDS011;20232;49.408;8.702;2023-03-14T17:46:31;6.83;;;2.13;;
6902;SDS011;20232;49.408;8.702;2023-03-14T17:48:57;4.80;;;2.10;;
6902;SDS011;20232;49.408;8.702;2023-03-14T17:51:22;7.53;;;2.10;;
6902;SDS011;20232;49.408;8.702;2023-03-14T17:53:48;4.87;;;2.10;;
6902;SDS011;20232;49.408;8.702;2023-03-14T17:56:14;4.90;;;1.90;;
6902;SDS011;20232;49.408;8.702;2023-03-14T17:58:39;4.07;;;2.00;;
6902;SDS011;20232;49.408;8.702;2023-03-14T18:01:12;5.67;;;2.30;;
6902;SDS011;20232;49.408;8.702;2023-03-14T18:03:39;6.20;;;2.30;;
6902;SDS011;20232;49.408;8.702;2023-03-14T18:06:06;5.93;;;2.53;;
6902;SDS011;20232;49.408;8.702;2023-03-14T18:08:33;7.00;;;2.30;;
6902;SDS011;20232;49.408;8.702;2023-03-14T18:10:59;3.03;;;1.83;;
6902;SDS011;20232;49.408;8.702;2023-03-14T18:13:24;4.30;;;2.23;;
6902;SDS011;20232;49.408;8.702;2023-03-14T18:15:50;7.03;;;2.40;;
6902;SDS011;20232;49.408;8.702;2023-03-14T18:18:16;5.90;;;2.33;;
6902;SDS011;20232;49.408;8.702;2023-03-14T18:20:47;6.50;;;2.30;;
6902;SDS011;20232;49.408;8.702;2023-03-14T18:23:17;5.27;;;2.10;;
6902;SDS011;20232;49.408;8.702;2023-03-14T18:25:45;7.37;;;2.20;;
6902;SDS011;20232;49.408;8.702;2023-03-14T18:28:11;5.43;;;2.40;;
6902;SDS011;20232;49.408;8.702;2023-03-14T18:30:37;7.83;;;2.60;;
6902;SDS011;20232;49.408;8.702;2023-03-14T18:33:02;4.50;;;2.40;;
6902;SDS011;20232;49.408;8.702;2023-03-14T18:35:28;6.27;;;2.40;;
6902;SDS011;20232;49.408;8.702;2023-03-14T18:37:53;6.17;;;2.37;;
6902;SDS011;20232;49.408;8.702;2023-03-14T18:40:19;4.47;;;2.20;;
6902;SDS011;20232;49.408;8.702;2023-03-14T18:42:45;4.40;;;2.00;;
6902;SDS011;20232;49.408;8.702;2023-03-14T18:45:10;5.50;;;2.13;;
6902;SDS011;20232;49.408;8.702;2023-03-14T18:47:36;8.47;;;2.50;;
6902;SDS011;20232;49.408;8.702;2023-03-14T18:50:05;4.47;;;2.40;;
6902;SDS011;20232;49.408;8.702;2023-03-14T18:52:32;4.90;;;2.60;;
6902;SDS011;20232;49.408;8.702;2023-03-14T18:54:58;6.17;;;2.60;;
6902;SDS011;20232;49.408;8.702;2023-03-14T18:57:24;5.37;;;2.50;;
6902;SDS011;20232;49.408;8.702;2023-03-14T18:59:50;4.63;;;2.70;;
6902;SDS011;20232;49.408;8.702;2023-03-14T19:02:21;3.67;;;2.20;;
6902;SDS011;20232;49.408;8.702;2023-03-14T19:04:47;8.60;;;2.43;;
6902;SDS011;20232;49.408;8.702;2023-03-14T19:07:15;4.77;;;2.33;;
6902;SDS011;20232;49.408;8.702;2023-03-14T19:09:41;5.67;;;2.30;;
6902;SDS011;20232;49.408;8.702;2023-03-14T19:12:07;7.27;;;2.47;;
6902;SDS011;20232;49.408;8.702;2023-03-14T19:14:33;7.10;;;2.47;;
6902;SDS011;20232;49.408;8.702;2023-03-14T19:16:58;6.60;;;2.60;;
6902;SDS011;20232;49.408;8.702;2023-03-14T19:19:24;5.67;;;2.33;;
6902;SDS011;20232;49.408;8.702;2023-03-14T19:21:50;2.90;;;2.00;;
6902;SDS011;20232;49.408;8.702;2023-03-14T19:24:16;5.00;;;2.70;;
6902;SDS011;20232;49.408;8.702;2023-03-14T19:26:43;5.20;;;2.50;;
6902;SDS011;20232;49.408;8.702;2023-03-14T19:29:10;5.20;;;2.63;;
6902;SDS011;20232;49.408;8.702;2023-03-14T19:31:36;6.57;;;2.40;;
6902;SDS011;20232;49.408;8.702;2023-03-14T19:34:02;4.10;;;2.50;;
6902;SDS011;20232;49.408;8.702;2023-03-14T19:36:29;4.60;;;2.70;;
6902;SDS011;20232;49.408;8.702;2023-03-14T19:38:57;5.13;;;2.67;;
6902;SDS011;20232;49.408;8.702;2023-03-14T19:41:25;7.87;;;2.50;;
6902;SDS011;20232;49.408;8.702;2023-03-14T19:43:52;3.80;;;2.47;;
6902;SDS011;20232;49.408;8.702;2023-03-14T19:46:17;3.63;;;2.30;;
6902;SDS011;20232;49.408;8.702;2023-03-14T19:48:43;3.77;;;2.20;;
6902;SDS011;20232;49.408;8.702;2023-03-14T19:51:10;2.20;;;2.00;;
6902;SDS011;20232;49.408;8.702;2023-03-14T19:53:36;2.37;;;2.10;;
6902;SDS011;20232;49.408;8.702;2023-03-14T19:56:02;1.80;;;1.70;;
6902;SDS011;20232;49.408;8.702;2023-03-14T19:58:29;1.57;;;1.50;;
6902;SDS011;20232;49.408;8.702;2023-03-14T20:00:55;1.83;;;1.73;;
6902;SDS011;20232;49.408;8.702;2023-03-14T20:03:21;1.60;;;1.50;;
6902;SDS011;20232;49.408;8.702;2023-03-14T20:05:47;1.73;;;1.63;;
6902;SDS011;20232;49.408;8.702;2023-03-14T20:08:13;1.80;;;1.70;;
6902;SDS011;20232;49.408;8.702;2023-03-14T20:10:40;1.90;;;1.80;;
6902;SDS011;20232;49.408;8.702;2023-03-14T20:13:06;1.70;;;1.60;;
6902;SDS011;20232;49.408;8.702;2023-03-14T20:15:32;1.53;;;1.47;;
6902;SDS011;20232;49.408;8.702;2023-03-14T20:17:57;1.60;;;1.50;;
6902;SDS011;20232;49.408;8.702;2023-03-14T20:20:23;1.70;;;1.60;;
6902;SDS011;20232;49.408;8.702;2023-03-14T20:22:49;1.93;;;1.70;;
6902;SDS011;20232;49.408;8.702;2023-03-14T20:25:15;2.10;;;1.87;;
6902;SDS011;20232;49.408;8.702;2023-03-14T20:27:46;2.10;;;2.00;;
6902;SDS011;20232;49.408;8.702;2023-03-14T20:30:13;1.90;;;1.80;;
6902;SDS011;20232;49.408;8.702;2023-03-14T20:32:41;2.10;;;2.00;;
6902;SDS011;20232;49.408;8.702;2023-03-14T20:35:08;3.50;;;2.50;;
6902;SDS011;20232;49.408;8.702;2023-03-14T20:37:35;2.37;;;2.17;;
6902;SDS011;20232;49.408;8.702;2023-03-14T20:40:01;3.70;;;2.70;;
6902;SDS011;20232;49.408;8.702;2023-03-14T20:42:31;2.60;;;2.40;;
6902;SDS011;20232;49.408;8.702;2023-03-14T20:44:58;4.33;;;3.07;;
6902;SDS011;20232;49.408;8.702;2023-03-14T20:47:24;5.27;;;3.20;;
6902;SDS011;20232;49.408;8.702;2023-03-14T20:49:49;5.53;;;3.87;;
6902;SDS011;20232;49.408;8.702;2023-03-14T20:52:15;7.47;;;3.60;;
6902;SDS011;20232;49.408;8.702;2023-03-14T20:54:40;5.77;;;3.90;;
6902;SDS011;20232;49.408;8.702;2023-03-14T20:57:06;8.33;;;3.87;;
6902;SDS011;20232;49.408;8.702;2023-03-14T20:59:32;6.67;;;3.90;;
6902;SDS011;20232;49.408;8.702;2023-03-14T21:01:57;7.80;;;4.40;;
6902;SDS011;20232;49.408;8.702;2023-03-14T21:04:23;8.70;;;4.67;;
6902;SDS011;20232;49.408;8.702;2023-03-14T21:06:50;10.13;;;4.50;;